createdAt,value
2018-05-13T00:01:23.322Z,23.80
2018-05-13T00:03:50.778Z,24.50
2018-05-13T00:06:18.203Z,23.60
2018-05-13T00:08:45.644Z,24.43
2018-05-13T00:11:13.848Z,24.17
2018-05-13T00:13:41.293Z,23.90
2018-05-13T00:16:08.778Z,24.75
2018-05-13T00:18:36.229Z,24.52
2018-05-13T00:21:03.664Z,24.83
2018-05-13T00:23:31.108Z,24.73
2018-05-13T00:25:59.340Z,24.00
2018-05-13T00:28:26.789Z,24.00
2018-05-13T00:30:54.215Z,24.55
2018-05-13T00:33:21.725Z,24.27
2018-05-13T00:35:49.156Z,24.53
2018-05-13T00:38:16.589Z,24.65
2018-05-13T00:40:44.058Z,25.20
2018-05-13T00:43:11.496Z,24.83
2018-05-13T00:45:38.963Z,25.25
2018-05-13T00:48:06.447Z,25.17
2018-05-13T00:50:33.943Z,25.23
2018-05-13T00:53:01.543Z,25.05
2018-05-13T00:55:28.956Z,25.52
2018-05-13T00:57:57.188Z,25.20
2018-05-13T01:00:24.732Z,25.70
2018-05-13T01:02:52.167Z,25.02
2018-05-13T01:05:20.463Z,24.15
2018-05-13T01:07:47.936Z,24.35
2018-05-13T01:10:15.381Z,24.98
2018-05-13T01:12:42.829Z,25.07
2018-05-13T01:15:10.295Z,25.30
2018-05-13T01:17:37.854Z,23.90
2018-05-13T01:20:05.273Z,24.65
2018-05-13T01:22:33.495Z,24.48
2018-05-13T01:25:00.945Z,24.23
2018-05-13T01:27:28.388Z,23.75
2018-05-13T01:29:55.829Z,24.17
2018-05-13T01:32:23.334Z,24.27
2018-05-13T01:34:51.540Z,24.60
2018-05-13T01:37:19.040Z,23.85
2018-05-13T01:39:46.524Z,23.20
2018-05-13T01:42:14.222Z,24.00
2018-05-13T01:44:41.644Z,23.48
2018-05-13T01:47:09.089Z,24.00
2018-05-13T01:49:36.525Z,24.20
2018-05-13T01:52:04.098Z,23.17
2018-05-13T01:54:31.528Z,22.87
2018-05-13T01:56:59.036Z,23.67
2018-05-13T01:59:26.596Z,23.40
2018-05-13T02:01:54.040Z,24.58
2018-05-13T02:04:21.485Z,23.50
2018-05-13T02:06:49.079Z,23.60
2018-05-13T02:09:16.512Z,23.42
2018-05-13T02:11:44.056Z,23.67
2018-05-13T02:14:11.492Z,23.35
2018-05-13T02:16:39.001Z,23.37
2018-05-13T02:19:06.547Z,23.48
2018-05-13T02:21:34.086Z,23.70
2018-05-13T02:24:02.539Z,23.77
2018-05-13T02:26:29.988Z,24.67
2018-05-13T02:28:58.216Z,23.38
2018-05-13T02:31:25.677Z,24.50
2018-05-13T02:33:53.121Z,24.25
2018-05-13T02:36:20.666Z,25.50
2018-05-13T02:38:48.121Z,24.20
2018-05-13T02:41:15.575Z,24.27
2018-05-13T02:43:43.034Z,24.67
2018-05-13T02:46:10.520Z,24.15
2018-05-13T02:48:38.094Z,24.30
2018-05-13T02:51:05.541Z,23.17
2018-05-13T02:53:32.976Z,24.35
2018-05-13T02:56:00.423Z,24.33
2018-05-13T02:58:27.864Z,23.50
2018-05-13T03:00:55.298Z,23.60
2018-05-13T03:03:23.553Z,23.52
2018-05-13T03:05:51.091Z,23.70
2018-05-13T03:08:18.528Z,23.55
2018-05-13T03:10:46.000Z,23.42
2018-05-13T03:13:13.433Z,25.23
2018-05-13T03:15:40.870Z,24.10
2018-05-13T03:18:08.316Z,25.55
2018-05-13T03:20:35.753Z,25.63
2018-05-13T03:23:03.961Z,25.52
2018-05-13T03:25:31.399Z,24.10
2018-05-13T03:27:59.612Z,24.73
2018-05-13T03:30:27.060Z,24.35
2018-05-13T03:32:54.541Z,24.23
2018-05-13T03:35:21.995Z,23.77
2018-05-13T03:37:49.579Z,23.55
2018-05-13T03:40:16.969Z,24.55
2018-05-13T03:42:44.469Z,25.00
2018-05-13T03:45:12.002Z,25.77
2018-05-13T03:47:39.441Z,25.17
2018-05-13T03:50:06.876Z,24.15
2018-05-13T03:52:35.075Z,25.73
2018-05-13T03:55:02.529Z,25.48
2018-05-13T03:57:29.976Z,24.77
2018-05-13T03:59:57.429Z,24.15
2018-05-13T04:02:25.621Z,24.15
2018-05-13T04:04:53.127Z,24.30
2018-05-13T04:07:20.610Z,24.50
2018-05-13T04:10:00.010Z,25.27
2018-05-13T04:12:39.298Z,25.60
2018-05-13T04:15:22.527Z,23.05
2018-05-13T04:17:49.976Z,23.50
2018-05-13T04:20:17.426Z,25.42
2018-05-13T04:22:45.629Z,23.52
2018-05-13T04:25:13.067Z,23.83
2018-05-13T04:27:40.644Z,23.90
2018-05-13T04:30:08.073Z,24.25
2018-05-13T04:32:35.510Z,23.85
2018-05-13T04:35:03.725Z,23.92
2018-05-13T04:37:31.208Z,24.00
2018-05-13T04:39:58.661Z,23.80
2018-05-13T04:42:26.096Z,23.87
2018-05-13T04:44:53.557Z,23.70
2018-05-13T04:47:21.008Z,24.47
2018-05-13T04:49:48.487Z,24.00
2018-05-13T04:52:15.928Z,22.65
2018-05-13T04:54:43.387Z,23.02
2018-05-13T04:57:10.825Z,24.15
2018-05-13T04:59:38.313Z,23.50
2018-05-13T05:02:05.769Z,23.62
2018-05-13T05:04:33.224Z,24.12
2018-05-13T05:07:00.672Z,22.92
2018-05-13T05:09:28.120Z,22.73
2018-05-13T05:11:55.677Z,22.58
2018-05-13T05:14:23.112Z,21.35
2018-05-13T05:16:50.617Z,22.50
2018-05-13T05:19:18.050Z,21.47
2018-05-13T05:21:45.493Z,22.08
2018-05-13T05:24:12.980Z,22.30
2018-05-13T05:26:40.421Z,22.00
2018-05-13T05:29:07.889Z,22.02
2018-05-13T05:31:35.345Z,21.23
2018-05-13T05:34:02.807Z,20.42
2018-05-13T05:36:30.338Z,21.80
2018-05-13T05:38:57.994Z,22.10
2018-05-13T05:41:25.433Z,21.73
2018-05-13T05:43:52.871Z,21.42
2018-05-13T05:46:20.363Z,21.10
2018-05-13T05:48:47.787Z,20.50
2018-05-13T05:51:16.022Z,20.60
2018-05-13T05:53:43.468Z,20.00
2018-05-13T05:56:10.917Z,20.25
2018-05-13T05:58:38.373Z,20.85
2018-05-13T06:01:05.829Z,20.85
2018-05-13T06:03:33.268Z,20.60
2018-05-13T06:06:00.703Z,21.20
2018-05-13T06:08:28.928Z,20.40
2018-05-13T06:10:56.417Z,20.85
2018-05-13T06:13:23.844Z,20.60
2018-05-13T06:15:51.345Z,21.10
2018-05-13T06:18:19.608Z,20.35
2018-05-13T06:20:47.085Z,20.02
2018-05-13T06:23:14.525Z,19.30
2018-05-13T06:25:41.953Z,20.75
2018-05-13T06:28:09.399Z,21.10
2018-05-13T06:30:36.857Z,19.92
2018-05-13T06:33:04.311Z,21.00
2018-05-13T06:35:31.746Z,20.90
2018-05-13T06:37:59.216Z,19.92
2018-05-13T06:40:26.689Z,20.60
2018-05-13T06:42:54.320Z,20.20
2018-05-13T06:45:21.965Z,20.27
2018-05-13T06:47:49.311Z,21.50
2018-05-13T06:50:17.529Z,21.83
2018-05-13T06:52:44.984Z,21.55
2018-05-13T06:55:12.436Z,20.27
2018-05-13T06:57:39.876Z,19.50
2018-05-13T07:00:07.318Z,21.25
2018-05-13T07:02:34.760Z,21.65
2018-05-13T07:05:03.005Z,21.67
2018-05-13T07:07:30.440Z,20.93
2018-05-13T07:09:57.874Z,20.70
2018-05-13T07:12:25.307Z,21.67
2018-05-13T07:14:52.901Z,22.50
2018-05-13T07:17:20.329Z,19.37
2018-05-13T07:19:47.829Z,22.15
2018-05-13T07:22:15.311Z,21.50
2018-05-13T07:24:42.740Z,20.58
2018-05-13T07:27:10.185Z,21.85
2018-05-13T07:29:37.646Z,22.57
2018-05-13T07:32:05.076Z,21.15
2018-05-13T07:34:32.520Z,21.20
2018-05-13T07:37:00.030Z,21.42
2018-05-13T07:39:27.469Z,21.95
2018-05-13T07:41:54.904Z,22.60
2018-05-13T07:44:22.348Z,20.60
2018-05-13T07:46:50.129Z,20.95
2018-05-13T07:49:17.576Z,22.37
2018-05-13T07:51:45.021Z,20.05
2018-05-13T07:54:12.480Z,21.33
2018-05-13T07:56:39.954Z,22.95
2018-05-13T07:59:07.411Z,22.48
2018-05-13T08:01:34.893Z,23.23
2018-05-13T08:04:02.361Z,21.77
2018-05-13T08:06:29.823Z,22.42
2018-05-13T08:08:57.252Z,21.87
2018-05-13T08:11:24.707Z,22.10
2018-05-13T08:13:52.180Z,21.10
2018-05-13T08:16:19.621Z,21.15
2018-05-13T08:18:47.064Z,21.12
2018-05-13T08:21:14.541Z,21.35
2018-05-13T08:23:41.992Z,21.15
2018-05-13T08:26:09.426Z,20.48
2018-05-13T08:28:36.878Z,22.02
2018-05-13T08:31:04.360Z,21.70
2018-05-13T08:33:31.823Z,20.17
2018-05-13T08:35:59.257Z,21.12
2018-05-13T08:38:26.711Z,21.07
2018-05-13T08:40:54.167Z,21.40
2018-05-13T08:43:21.624Z,21.27
2018-05-13T08:45:49.096Z,21.17
2018-05-13T08:48:16.639Z,21.52
2018-05-13T08:50:44.060Z,21.37
2018-05-13T08:53:12.270Z,21.17
2018-05-13T08:55:39.728Z,22.17
2018-05-13T08:58:07.170Z,21.02
2018-05-13T09:00:34.662Z,20.00
2018-05-13T09:03:02.117Z,20.20
2018-05-13T09:05:29.558Z,20.23
2018-05-13T09:07:57.012Z,21.52
2018-05-13T09:10:24.779Z,19.00
2018-05-13T09:12:52.220Z,20.05
2018-05-13T09:15:19.675Z,20.10
2018-05-13T09:17:47.141Z,19.60
2018-05-13T09:20:14.641Z,18.50
2018-05-13T09:22:42.108Z,17.42
2018-05-13T09:25:09.548Z,18.05
2018-05-13T09:27:37.024Z,17.73
2018-05-13T09:30:05.245Z,16.65
2018-05-13T09:32:32.708Z,16.60
2018-05-13T09:35:00.187Z,16.67
2018-05-13T09:37:27.635Z,16.83
2018-05-13T09:39:55.092Z,15.95
2018-05-13T09:42:22.537Z,16.75
2018-05-13T09:44:49.990Z,17.30
2018-05-13T09:47:17.442Z,15.90
2018-05-13T09:49:44.895Z,16.70
2018-05-13T09:52:12.337Z,16.12
2018-05-13T09:54:39.775Z,16.40
2018-05-13T09:57:07.985Z,15.73
2018-05-13T09:59:35.535Z,15.55
2018-05-13T10:02:02.961Z,14.05
2018-05-13T10:04:31.173Z,16.40
2018-05-13T10:06:58.723Z,16.40
2018-05-13T10:09:26.247Z,15.40
2018-05-13T10:11:53.604Z,14.20
2018-05-13T10:14:21.912Z,15.30
2018-05-13T10:16:49.352Z,16.33
2018-05-13T10:19:16.808Z,15.18
2018-05-13T10:21:44.256Z,14.73
2018-05-13T10:24:12.472Z,15.48
2018-05-13T10:26:39.901Z,14.50
2018-05-13T10:29:07.351Z,14.87
2018-05-13T10:31:34.805Z,15.05
2018-05-13T10:34:02.273Z,15.38
2018-05-13T10:36:29.804Z,14.77
2018-05-13T10:38:57.213Z,15.67
2018-05-13T10:41:24.668Z,14.93
2018-05-13T10:43:52.116Z,14.60
2018-05-13T10:46:19.579Z,14.02
2018-05-13T10:48:47.016Z,14.57
2018-05-13T10:51:14.457Z,14.83
2018-05-13T10:53:41.904Z,14.40
2018-05-13T10:56:09.353Z,14.65
2018-05-13T10:58:37.577Z,14.00
2018-05-13T11:01:05.119Z,14.50
2018-05-13T11:03:32.593Z,13.77
2018-05-13T11:06:00.132Z,13.20
2018-05-13T11:08:27.574Z,13.43
2018-05-13T11:10:55.017Z,14.30
2018-05-13T11:13:23.321Z,12.45
2018-05-13T11:15:50.891Z,12.55
2018-05-13T11:18:18.372Z,12.32
2018-05-13T11:20:45.902Z,13.10
2018-05-13T11:23:13.268Z,13.25
2018-05-13T11:25:40.807Z,12.77
2018-05-13T11:28:08.250Z,12.10
2018-05-13T11:30:35.701Z,12.23
2018-05-13T11:33:03.192Z,19.33
2018-05-13T11:35:30.735Z,12.20
2018-05-13T11:37:58.168Z,11.95
2018-05-13T11:40:25.628Z,12.32
2018-05-13T11:42:53.069Z,11.98
2018-05-13T11:45:21.304Z,12.65
2018-05-13T11:47:48.749Z,12.37
2018-05-13T11:50:16.196Z,12.47
2018-05-13T11:52:43.680Z,12.50
2018-05-13T11:55:11.112Z,12.23
2018-05-13T11:57:38.560Z,13.32
2018-05-13T12:00:06.057Z,14.00
2018-05-13T12:02:33.553Z,12.63
2018-05-13T12:05:01.069Z,12.30
2018-05-13T12:07:28.519Z,13.10
2018-05-13T12:09:55.966Z,13.20
2018-05-13T12:12:23.407Z,12.80
2018-05-13T12:14:50.882Z,12.07
2018-05-13T12:17:18.305Z,12.70
2018-05-13T12:19:45.792Z,12.25
2018-05-13T12:22:13.243Z,12.10
2018-05-13T12:24:40.722Z,12.90
2018-05-13T12:27:08.178Z,13.07
2018-05-13T12:29:35.641Z,12.90
2018-05-13T12:32:03.080Z,12.70
2018-05-13T12:34:30.641Z,12.73
2018-05-13T12:36:58.089Z,13.55
2018-05-13T12:39:25.561Z,12.82
2018-05-13T12:41:52.979Z,13.62
2018-05-13T12:44:20.541Z,13.05
2018-05-13T12:46:48.121Z,13.00
2018-05-13T12:49:15.585Z,13.45
2018-05-13T12:51:43.033Z,13.75
2018-05-13T12:54:10.506Z,12.85
2018-05-13T12:56:37.944Z,14.17
2018-05-13T12:59:05.396Z,13.18
2018-05-13T13:01:32.829Z,12.57
2018-05-13T13:04:00.326Z,13.57
2018-05-13T13:06:27.779Z,12.48
2018-05-13T13:08:55.202Z,13.45
2018-05-13T13:11:22.654Z,13.00
2018-05-13T13:13:50.085Z,13.20
2018-05-13T13:16:17.545Z,14.20
2018-05-13T13:18:45.047Z,15.10
2018-05-13T13:21:12.794Z,15.30
2018-05-13T13:23:40.231Z,18.02
2018-05-13T13:26:07.705Z,17.10
2018-05-13T13:28:35.144Z,16.85
2018-05-13T13:31:02.592Z,15.55
2018-05-13T13:33:30.054Z,15.90
2018-05-13T13:35:57.508Z,14.75
2018-05-13T13:38:25.802Z,15.30
2018-05-13T13:40:53.296Z,15.63
2018-05-13T13:43:20.733Z,16.30
2018-05-13T13:45:48.219Z,16.45
2018-05-13T13:48:15.664Z,18.08
2018-05-13T13:50:43.110Z,16.93
2018-05-13T13:53:10.565Z,15.55
2018-05-13T13:55:38.099Z,16.20
2018-05-13T13:58:05.533Z,16.35
2018-05-13T14:00:32.980Z,16.45
2018-05-13T14:03:01.290Z,15.32
2018-05-13T14:05:28.730Z,14.70
2018-05-13T14:07:56.184Z,15.30
2018-05-13T14:10:23.682Z,15.30
2018-05-13T14:12:51.113Z,15.00
2018-05-13T14:15:18.672Z,13.80
2018-05-13T14:17:46.105Z,13.82
2018-05-13T14:20:13.591Z,14.00
2018-05-13T14:22:41.069Z,12.88
2018-05-13T14:25:08.618Z,13.50
2018-05-13T14:27:36.072Z,12.93
2018-05-13T14:30:03.616Z,13.10
2018-05-13T14:32:31.122Z,12.05
2018-05-13T14:34:58.629Z,11.52
2018-05-13T14:37:26.060Z,11.90
2018-05-13T14:39:54.354Z,11.23
2018-05-13T14:42:21.821Z,12.77
2018-05-13T14:44:49.308Z,12.18
2018-05-13T14:47:16.760Z,11.90
2018-05-13T14:49:44.205Z,11.30
2018-05-13T14:52:11.652Z,11.45
2018-05-13T14:54:39.109Z,11.60
2018-05-13T14:57:06.658Z,11.05
2018-05-13T14:59:34.115Z,11.85
2018-05-13T15:02:01.550Z,10.82
2018-05-13T15:04:29.047Z,10.70
2018-05-13T15:06:56.593Z,11.50
2018-05-13T15:09:25.260Z,10.32
2018-05-13T15:11:51.966Z,10.20
2018-05-13T15:14:19.393Z,10.00
2018-05-13T15:16:46.840Z,9.80
2018-05-13T15:19:14.296Z,9.60
2018-05-13T15:21:41.801Z,8.90
2018-05-13T15:24:10.007Z,8.85
2018-05-13T15:26:37.432Z,9.25
2018-05-13T15:29:06.258Z,9.75
2018-05-13T15:31:33.745Z,9.40
2018-05-13T15:34:01.192Z,8.70
2018-05-13T15:36:28.657Z,8.00
2018-05-13T15:38:56.100Z,7.30
2018-05-13T15:41:23.576Z,7.40
2018-05-13T15:43:51.010Z,7.80
2018-05-13T15:46:18.432Z,7.60
2018-05-13T15:48:46.005Z,7.50
2018-05-13T15:51:13.440Z,6.95
2018-05-13T15:53:41.634Z,7.53
2018-05-13T15:56:09.252Z,6.75
2018-05-13T15:58:37.516Z,6.25
2018-05-13T16:01:04.963Z,6.40
2018-05-13T16:03:32.402Z,6.10
2018-05-13T16:05:59.977Z,5.95
2018-05-13T16:08:27.412Z,6.10
2018-05-13T16:10:54.856Z,5.80
2018-05-13T16:13:22.512Z,6.00
2018-05-13T16:15:50.072Z,5.50
2018-05-13T16:18:17.511Z,5.20
2018-05-13T16:20:44.949Z,5.68
2018-05-13T16:23:13.184Z,6.15
2018-05-13T16:25:40.641Z,5.47
2018-05-13T16:28:08.088Z,5.30
2018-05-13T16:30:35.557Z,5.22
2018-05-13T16:33:03.003Z,5.60
2018-05-13T16:35:30.441Z,5.80
2018-05-13T16:37:57.912Z,5.18
2018-05-13T16:40:25.356Z,5.00
2018-05-13T16:42:52.802Z,5.87
2018-05-13T16:45:20.246Z,5.53
2018-05-13T16:47:48.464Z,4.90
2018-05-13T16:50:15.932Z,4.45
2018-05-13T16:52:43.473Z,4.70
2018-05-13T16:55:10.912Z,5.00
2018-05-13T16:57:38.365Z,5.30
2018-05-13T17:00:05.847Z,5.03
2018-05-13T17:02:33.329Z,4.35
2018-05-13T17:05:00.733Z,4.05
2018-05-13T17:07:28.181Z,4.40
2018-05-13T17:09:55.618Z,4.22
2018-05-13T17:12:23.923Z,4.65
2018-05-13T17:14:51.359Z,4.50
2018-05-13T17:17:18.796Z,4.50
2018-05-13T17:19:46.225Z,4.20
2018-05-13T17:22:13.643Z,4.90
2018-05-13T17:24:41.088Z,4.30
2018-05-13T17:27:08.557Z,4.45
2018-05-13T17:29:36.014Z,4.47
2018-05-13T17:32:03.450Z,4.25
2018-05-13T17:34:31.704Z,4.20
2018-05-13T17:36:59.918Z,4.00
2018-05-13T17:39:27.449Z,3.95
2018-05-13T17:41:54.830Z,4.27
2018-05-13T17:44:22.260Z,4.07
2018-05-13T17:46:50.488Z,4.00
2018-05-13T17:49:17.961Z,4.15
2018-05-13T17:51:45.410Z,4.00
2018-05-13T17:54:12.878Z,4.40
2018-05-13T17:56:40.318Z,4.20
2018-05-13T17:59:08.592Z,3.90
2018-05-13T18:01:36.039Z,4.10
2018-05-13T18:04:03.517Z,4.00
2018-05-13T18:06:30.913Z,3.50
2018-05-13T18:08:58.412Z,3.80
2018-05-13T18:11:25.886Z,4.43
2018-05-13T18:13:53.328Z,3.72
2018-05-13T18:16:20.772Z,4.30
2018-05-13T18:18:48.209Z,3.50
2018-05-13T18:21:15.695Z,3.90
2018-05-13T18:23:43.148Z,4.03
2018-05-13T18:26:10.604Z,4.37
2018-05-13T18:28:38.054Z,4.40
2018-05-13T18:31:05.519Z,4.50
2018-05-13T18:33:33.024Z,10.40
2018-05-13T18:36:01.216Z,4.10
2018-05-13T18:38:28.721Z,3.70
2018-05-13T18:40:56.179Z,3.95
2018-05-13T18:43:23.619Z,3.90
2018-05-13T18:45:51.053Z,3.92
2018-05-13T18:48:18.496Z,9.70
2018-05-13T18:50:45.914Z,5.20
2018-05-13T18:53:13.364Z,4.00
2018-05-13T18:55:40.793Z,4.40
2018-05-13T18:58:08.224Z,4.20
2018-05-13T19:00:35.692Z,4.20
2018-05-13T19:03:03.139Z,4.43
2018-05-13T19:05:30.572Z,7.85
2018-05-13T19:07:58.793Z,4.18
2018-05-13T19:10:26.213Z,4.10
2018-05-13T19:12:53.656Z,5.47
2018-05-13T19:15:21.897Z,8.52
2018-05-13T19:17:49.346Z,5.65
2018-05-13T19:20:16.876Z,7.95
2018-05-13T19:22:44.349Z,6.40
2018-05-13T19:25:11.795Z,4.50
2018-05-13T19:27:39.244Z,4.20
2018-05-13T19:30:06.703Z,4.62
2018-05-13T19:32:34.144Z,4.47
2018-05-13T19:35:01.673Z,4.30
2018-05-13T19:37:29.088Z,4.00
2018-05-13T19:39:56.538Z,4.60
2018-05-13T19:42:23.983Z,4.10
2018-05-13T19:44:51.448Z,4.30
2018-05-13T19:47:18.875Z,4.50
2018-05-13T19:49:46.316Z,3.83
2018-05-13T19:52:14.531Z,4.15
2018-05-13T19:54:41.961Z,3.95
2018-05-13T19:57:09.452Z,3.90
2018-05-13T19:59:36.894Z,4.30
2018-05-13T20:02:04.332Z,4.30
2018-05-13T20:04:31.806Z,4.30
2018-05-13T20:06:59.309Z,4.20
2018-05-13T20:09:26.944Z,4.00
2018-05-13T20:11:54.356Z,4.45
2018-05-13T20:14:21.805Z,4.90
2018-05-13T20:16:50.020Z,4.32
2018-05-13T20:19:17.489Z,4.50
2018-05-13T20:21:44.933Z,5.03
2018-05-13T20:24:12.380Z,4.62
2018-05-13T20:26:39.863Z,4.20
2018-05-13T20:29:07.428Z,7.75
2018-05-13T20:31:34.953Z,4.80
2018-05-13T20:34:02.388Z,5.75
2018-05-13T20:36:29.897Z,4.97
2018-05-13T20:38:57.353Z,5.22
2018-05-13T20:41:24.804Z,5.10
2018-05-13T20:43:52.240Z,4.90
2018-05-13T20:46:19.684Z,5.15
2018-05-13T20:48:47.146Z,5.87
2018-05-13T20:51:14.669Z,5.55
2018-05-13T20:53:42.064Z,5.53
2018-05-13T20:56:09.508Z,5.18
2018-05-13T20:58:36.954Z,5.30
2018-05-13T21:01:04.478Z,5.50
2018-05-13T21:03:32.449Z,5.62
2018-05-13T21:05:59.880Z,5.35
2018-05-13T21:08:27.341Z,5.60
2018-05-13T21:10:54.767Z,5.12
2018-05-13T21:13:22.265Z,5.00
2018-05-13T21:15:49.708Z,5.10
2018-05-13T21:18:17.176Z,6.60
2018-05-13T21:20:44.628Z,5.50
2018-05-13T21:23:12.190Z,5.28
2018-05-13T21:25:39.621Z,5.70
2018-05-13T21:28:07.075Z,5.68
2018-05-13T21:30:34.541Z,5.00
2018-05-13T21:33:01.976Z,6.00
2018-05-13T21:35:29.461Z,5.70
2018-05-13T21:37:56.888Z,5.72
2018-05-13T21:40:24.409Z,5.90
2018-05-13T21:42:51.769Z,5.60
2018-05-13T21:45:19.979Z,5.78
2018-05-13T21:47:47.453Z,6.10
2018-05-13T21:50:14.916Z,5.80
2018-05-13T21:52:42.351Z,5.80
2018-05-13T21:55:09.788Z,5.40
2018-05-13T21:57:37.270Z,5.45
2018-05-13T22:00:04.815Z,5.75
2018-05-13T22:02:32.288Z,5.67
2018-05-13T22:04:59.772Z,5.97
2018-05-13T22:07:28.001Z,5.72
2018-05-13T22:09:55.428Z,5.43
2018-05-13T22:12:23.632Z,5.80
2018-05-13T22:14:51.088Z,5.50
2018-05-13T22:17:18.513Z,5.40
2018-05-13T22:19:46.740Z,5.80
2018-05-13T22:22:14.181Z,5.30
2018-05-13T22:24:41.612Z,5.90
2018-05-13T22:27:09.076Z,5.80
2018-05-13T22:29:36.514Z,5.50
2018-05-13T22:32:04.797Z,5.75
2018-05-13T22:34:32.291Z,5.50
2018-05-13T22:36:59.725Z,6.45
2018-05-13T22:39:27.174Z,5.32
2018-05-13T22:41:54.608Z,6.20
2018-05-13T22:44:22.817Z,5.93
2018-05-13T22:46:50.269Z,5.90
2018-05-13T22:49:17.727Z,5.80
2018-05-13T22:51:45.160Z,6.00
2018-05-13T22:54:12.641Z,5.80
2018-05-13T22:56:40.065Z,8.70
2018-05-13T22:59:08.263Z,6.00
2018-05-13T23:01:35.725Z,6.28
2018-05-13T23:04:03.202Z,6.70
2018-05-13T23:06:30.652Z,5.90
2018-05-13T23:08:58.080Z,5.83
2018-05-13T23:11:26.336Z,5.80
2018-05-13T23:13:53.757Z,6.28
2018-05-13T23:16:21.200Z,6.30
2018-05-13T23:18:48.624Z,6.00
2018-05-13T23:21:16.835Z,5.90
2018-05-13T23:23:44.394Z,5.70
2018-05-13T23:26:11.828Z,5.80
2018-05-13T23:28:39.357Z,5.80
2018-05-13T23:31:06.883Z,6.00
2018-05-13T23:33:34.339Z,5.75
2018-05-13T23:36:01.765Z,6.10
2018-05-13T23:38:29.249Z,5.45
2018-05-13T23:40:56.721Z,6.10
2018-05-13T23:43:24.156Z,6.20
2018-05-13T23:45:51.593Z,5.90
2018-05-13T23:48:19.025Z,6.90
2018-05-13T23:50:47.229Z,6.90
2018-05-13T23:53:14.973Z,7.07
2018-05-13T23:55:43.157Z,7.18
2018-05-13T23:58:10.728Z,6.60
